^^
No Wait Weather (KNEBELLE1) Station Historical Data
Daily Summary for May 20, 2019 Units:  English    Metric   Both
Daily Weekly Monthly Yearly Custom
  High: Low: Average:
Temperature: 52.3 °F 42.3 °F 48.1 °F
Dew Point: 44.52 °F 37.32 °F 40.9 °F
Humidity: 85% 65% 76%
Wind Speed: 6mph 0mph 0.5mph
Wind Gust: 12mph - -
Wind- - ENE
Pressure: 30.04 in 29.78 in -
Precipitation: 0 in    
Historical Graphs
 
 
Tabular Data for May 20, 2019
Time Temperature Dew Point Pressure Wind Wind Speed Wind Gust Humidity Rainfall Rate (Hourly) solar
00:04 49.9 °F 41.95 °F 29.92 in Calm     74% 0 in WeatherCatV3.04B91 W/m2
00:09 49.9 °F 41.95 °F 29.92 in Calm     74% 0 in WeatherCatV3.04B91 W/m2
00:14 49.9 °F 42.3 °F 29.91 in Calm     75% 0 in WeatherCatV3.04B91 W/m2
00:19 49.9 °F 42.3 °F 29.91 in Calm     75% 0 in WeatherCatV3.04B91 W/m2
00:24 49.9 °F 42.64 °F 29.91 in Calm     76% 0 in WeatherCatV3.04B91 W/m2
00:29 49.9 °F 42.64 °F 29.92 in Calm     76% 0 in WeatherCatV3.04B91 W/m2
00:34 49.9 °F 42.98 °F 29.92 in Calm     77% 0 in WeatherCatV3.04B91 W/m2
00:39 49.8 °F 42.88 °F 29.92 in Calm     77% 0 in WeatherCatV3.04B91 W/m2
00:44 49.8 °F 42.88 °F 29.93 in Calm     77% 0 in WeatherCatV3.04B91 W/m2
00:49 49.8 °F 42.88 °F 29.93 in Calm   2 mph 77% 0 in WeatherCatV3.04B91 W/m2
00:54 49.5 °F 42.93 °F 29.93 in Calm   2 mph 78% 0 in WeatherCatV3.04B91 W/m2
00:59 49.2 °F 42.97 °F 29.93 in Calm   3 mph 79% 0 in WeatherCatV3.04B91 W/m2
01:04 49.1 °F 42.87 °F 29.93 in Calm   4 mph 79% 0 in WeatherCatV3.04B91 W/m2
01:09 48.9 °F 43 °F 29.93 in Calm   3 mph 80% 0 in WeatherCatV3.04B91 W/m2
01:14 48.8 °F 42.91 °F 29.93 in Calm   5 mph 80% 0 in WeatherCatV3.04B91 W/m2
01:19 48.6 °F 42.71 °F 29.93 in Calm     80% 0 in WeatherCatV3.04B91 W/m2
01:24 48.5 °F 42.62 °F 29.93 in Calm     80% 0 in WeatherCatV3.04B91 W/m2
01:29 48.3 °F 42.42 °F 29.93 in Calm   3 mph 80% 0 in WeatherCatV3.04B91 W/m2
01:34 48.2 °F 42.32 °F 29.93 in Calm     80% 0 in WeatherCatV3.04B91 W/m2
01:39 48.2 °F 42.65 °F 29.93 in NE 2 mph 4 mph 81% 0 in WeatherCatV3.04B91 W/m2
01:44 47.9 °F 42.03 °F 29.93 in Calm   5 mph 80% 0 in WeatherCatV3.04B91 W/m2
01:49 47.7 °F 41.51 °F 29.93 in ENE 1 mph 4 mph 79% 0 in WeatherCatV3.04B91 W/m2
01:54 47.6 °F 41.41 °F 29.93 in Calm   2 mph 79% 0 in WeatherCatV3.04B91 W/m2
01:59 47.6 °F 41.41 °F 29.93 in Calm     79% 0 in WeatherCatV3.04B91 W/m2
02:04 47.4 °F 41.22 °F 29.93 in Calm     79% 0 in WeatherCatV3.04B91 W/m2
02:09 47.4 °F 41.22 °F 29.93 in Calm     79% 0 in WeatherCatV3.04B91 W/m2
02:14 47.3 °F 41.12 °F 29.94 in Calm     79% 0 in WeatherCatV3.04B91 W/m2
02:19 47.3 °F 41.12 °F 29.94 in Calm     79% 0 in WeatherCatV3.04B91 W/m2
02:24 47.1 °F 40.6 °F 29.94 in Calm     78% 0 in WeatherCatV3.04B91 W/m2
02:29 47 °F 40.5 °F 29.94 in Calm     78% 0 in WeatherCatV3.04B91 W/m2
02:34 47 °F 40.5 °F 29.94 in Calm     78% 0 in WeatherCatV3.04B91 W/m2
02:39 46.8 °F 40.31 °F 29.94 in Calm   3 mph 78% 0 in WeatherCatV3.04B91 W/m2
02:44 46.5 °F 40.02 °F 29.94 in Calm   3 mph 78% 0 in WeatherCatV3.04B91 W/m2
02:49 46.2 °F 39.72 °F 29.94 in Calm   3 mph 78% 0 in WeatherCatV3.04B91 W/m2
02:54 46.1 °F 39.63 °F 29.94 in Calm   1 mph 78% 0 in WeatherCatV3.04B91 W/m2
02:59 46 °F 39.86 °F 29.94 in Calm     79% 0 in WeatherCatV3.04B91 W/m2
03:04 45.7 °F 39.57 °F 29.94 in Calm     79% 0 in WeatherCatV3.04B91 W/m2
03:09 45.5 °F 39.69 °F 29.94 in Calm     80% 0 in WeatherCatV3.04B91 W/m2
03:14 45.4 °F 39.6 °F 29.95 in Calm     80% 0 in WeatherCatV3.04B91 W/m2
03:19 45.1 °F 39.62 °F 29.95 in Calm     81% 0 in WeatherCatV3.04B91 W/m2
03:24 44.9 °F 39.74 °F 29.95 in Calm     82% 0 in WeatherCatV3.04B91 W/m2
03:29 44.9 °F 39.74 °F 29.96 in Calm     82% 0 in WeatherCatV3.04B91 W/m2
03:34 44.8 °F 39.65 °F 29.96 in Calm     82% 0 in WeatherCatV3.04B91 W/m2
03:39 44.6 °F 39.76 °F 29.96 in Calm     83% 0 in WeatherCatV3.04B91 W/m2
03:44 44.5 °F 39.66 °F 29.96 in Calm     83% 0 in WeatherCatV3.04B91 W/m2
03:49 44.3 °F 39.47 °F 29.96 in Calm   1 mph 83% 0 in WeatherCatV3.04B91 W/m2
03:54 44.2 °F 39.68 °F 29.96 in Calm     84% 0 in WeatherCatV3.04B91 W/m2
03:59 44.1 °F 39.58 °F 29.95 in Calm     84% 0 in WeatherCatV3.04B91 W/m2
04:04 44.1 °F 39.88 °F 29.95 in Calm     85% 0 in WeatherCatV3.04B91 W/m2
04:09 44.1 °F 39.88 °F 29.95 in Calm     85% 0 in WeatherCatV3.04B91 W/m2
04:14 44.1 °F 39.88 °F 29.96 in Calm     85% 0 in WeatherCatV3.04B91 W/m2
04:19 44.1 °F 39.88 °F 29.96 in ENE 3 mph 5 mph 85% 0 in WeatherCatV3.04B91 W/m2
04:24 43.9 °F 39.69 °F 29.96 in NE 2 mph 5 mph 85% 0 in WeatherCatV3.04B91 W/m2
04:29 43.9 °F 39.38 °F 29.96 in ENE 1 mph 7 mph 84% 0 in WeatherCatV3.04B91 W/m2
04:34 43.8 °F 39.29 °F 29.96 in Calm   7 mph 84% 0 in WeatherCatV3.04B91 W/m2
04:39 43.6 °F 38.78 °F 29.96 in Calm   6 mph 83% 0 in WeatherCatV3.04B91 W/m2
04:44 43.5 °F 38.69 °F 29.96 in NE 4 mph 5 mph 83% 0 in WeatherCatV3.04B91 W/m2
04:49 43.3 °F 38.18 °F 29.96 in NE 1 mph 4 mph 82% 0 in WeatherCatV3.04B91 W/m2
04:54 43.3 °F 38.18 °F 29.96 in Calm   2 mph 82% 0 in WeatherCatV3.04B91 W/m2
04:59 43.2 °F 38.08 °F 29.97 in Calm     82% 0 in WeatherCatV3.04B91 W/m2
05:04 43.2 °F 38.08 °F 29.97 in Calm     82% 0 in WeatherCatV3.04B91 W/m2
05:09 43.1 °F 38.29 °F 29.97 in NE 2 mph 4 mph 83% 0 in WeatherCatV3.04B91 W/m2
05:14 43.1 °F 38.29 °F 29.96 in Calm   3 mph 83% 0 in WeatherCatV3.04B91 W/m2
05:19 42.9 °F 38.1 °F 29.96 in NE 3 mph 5 mph 83% 0 in WeatherCatV3.04B91 W/m2
05:24 42.8 °F 38 °F 29.96 in Calm     83% 0 in WeatherCatV3.04B91 W/m2
05:29 42.8 °F 38.31 °F 29.98 in Calm   3 mph 84% 0 in WeatherCatV3.04B91 W/m2
05:34 42.6 °F 38.11 °F 29.98 in Calm     84% 0 in WeatherCatV3.04B91 W/m2
05:39 42.5 °F 38.01 °F 29.98 in Calm   2 mph 84% 0 in WeatherCatV3.04B91 W/m2
05:44 42.5 °F 38.01 °F 29.99 in Calm   3 mph 84% 0 in WeatherCatV3.04B91 W/m2
05:49 42.5 °F 38.01 °F 29.99 in Calm     84% 0 in WeatherCatV3.04B91 W/m2
05:54 42.5 °F 38.01 °F 29.99 in Calm   2 mph 84% 0 in WeatherCatV3.04B91 W/m2
05:59 42.3 °F 37.82 °F 29.99 in Calm     84% 0 in WeatherCatV3.04B91 W/m2
06:04 42.3 °F 37.82 °F 29.99 in Calm     84% 0 in WeatherCatV3.04B91 W/m2
06:09 42.3 °F 37.82 °F 29.99 in ENE 2 mph 4 mph 84% 0 in WeatherCatV3.04B91 W/m2
06:14 42.3 °F 37.82 °F 29.98 in NE 4 mph 4 mph 84% 0 in WeatherCatV3.04B91 W/m2
06:19 42.5 °F 38.01 °F 29.98 in NE 3 mph 4 mph 84% 0 in WeatherCatV3.04B91 W/m2
06:24 42.6 °F 38.11 °F 29.98 in Calm   6 mph 84% 0 in WeatherCatV3.04B91 W/m2
06:29 42.6 °F 38.11 °F 29.97 in Calm   1 mph 84% 0 in WeatherCatV3.04B91 W/m2
06:34 42.8 °F 38.31 °F 29.97 in ENE 1 mph 3 mph 84% 0 in WeatherCatV3.04B91 W/m2
06:39 42.9 °F 38.4 °F 29.97 in Calm   1 mph 84% 0 in WeatherCatV3.04B91 W/m2
06:44 42.9 °F 38.1 °F 29.97 in ENE 2 mph 6 mph 83% 0 in WeatherCatV3.04B91 W/m2
06:49 43.1 °F 38.29 °F 29.97 in Calm   5 mph 83% 0 in WeatherCatV3.04B91 W/m2
06:54 43.1 °F 38.29 °F 29.97 in Calm   3 mph 83% 0 in WeatherCatV3.04B91 W/m2
06:59 43.2 °F 38.39 °F 29.98 in Calm   4 mph 83% 0 in WeatherCatV3.04B91 W/m2
07:04 43.3 °F 38.49 °F 29.98 in Calm   3 mph 83% 0 in WeatherCatV3.04B91 W/m2
07:09 43.5 °F 38.38 °F 29.98 in Calm     82% 0 in WeatherCatV3.04B91 W/m2
07:14 43.5 °F 38.06 °F 30.00 in Calm     81% 0 in WeatherCatV3.04B91 W/m2
07:19 43.6 °F 38.16 °F 30.00 in ENE 1 mph 1 mph 81% 0 in WeatherCatV3.04B91 W/m2
07:24 43.6 °F 37.84 °F 30.00 in Calm     80% 0 in WeatherCatV3.04B91 W/m2
07:29 43.6 °F 37.84 °F 30.00 in Calm   1 mph 80% 0 in WeatherCatV3.04B91 W/m2
07:34 43.8 °F 38.04 °F 30.00 in Calm   2 mph 80% 0 in WeatherCatV3.04B91 W/m2
07:39 43.9 °F 38.14 °F 30.00 in Calm     80% 0 in WeatherCatV3.04B91 W/m2
07:44 43.9 °F 37.82 °F 30.01 in Calm   3 mph 79% 0 in WeatherCatV3.04B91 W/m2
07:49 43.9 °F 37.82 °F 30.01 in Calm   1 mph 79% 0 in WeatherCatV3.04B91 W/m2
07:54 44.2 °F 38.11 °F 30.01 in Calm     79% 0 in WeatherCatV3.04B91 W/m2
07:59 44.5 °F 38.07 °F 30.01 in Calm     78% 0 in WeatherCatV3.04B91 W/m2
08:04 44.5 °F 38.07 °F 30.01 in Calm     78% 0 in WeatherCatV3.04B91 W/m2
08:09 44.5 °F 37.75 °F 30.01 in Calm   3 mph 77% 0 in WeatherCatV3.04B91 W/m2
08:14 44.3 °F 37.55 °F 30.02 in ENE 3 mph 5 mph 77% 0 in WeatherCatV3.04B91 W/m2
08:19 44.2 °F 37.45 °F 30.02 in Calm     77% 0 in WeatherCatV3.04B91 W/m2
08:24 44.2 °F 37.45 °F 30.02 in Calm   4 mph 77% 0 in WeatherCatV3.04B91 W/m2
08:29 44.2 °F 37.45 °F 30.02 in Calm     77% 0 in WeatherCatV3.04B91 W/m2
08:34 44.5 °F 37.75 °F 30.02 in NE 1 mph 3 mph 77% 0 in WeatherCatV3.04B91 W/m2
08:39 44.6 °F 37.84 °F 30.02 in Calm   4 mph 77% 0 in WeatherCatV3.04B91 W/m2
08:44 44.6 °F 37.84 °F 30.01 in Calm   5 mph 77% 0 in WeatherCatV3.04B91 W/m2
08:49 44.8 °F 38.04 °F 30.01 in Calm   2 mph 77% 0 in WeatherCatV3.04B91 W/m2
08:54 44.6 °F 37.51 °F 30.01 in Calm   5 mph 76% 0 in WeatherCatV3.04B91 W/m2
08:59 44.9 °F 37.8 °F 30.03 in Calm     76% 0 in WeatherCatV3.04B91 W/m2
09:04 44.9 °F 37.8 °F 30.03 in Calm   3 mph 76% 0 in WeatherCatV3.04B91 W/m2
09:09 44.9 °F 37.8 °F 30.03 in Calm     76% 0 in WeatherCatV3.04B91 W/m2
09:14 45.2 °F 38.09 °F 30.04 in Calm     76% 0 in WeatherCatV3.04B91 W/m2
09:19 45.2 °F 37.75 °F 30.04 in ENE 3 mph 4 mph 75% 0 in WeatherCatV3.04B91 W/m2
09:24 45.2 °F 37.75 °F 30.04 in Calm   4 mph 75% 0 in WeatherCatV3.04B91 W/m2
09:29 45.2 °F 37.75 °F 30.02 in Calm     75% 0 in WeatherCatV3.04B91 W/m2
09:34 45.2 °F 37.75 °F 30.02 in Calm     75% 0 in WeatherCatV3.04B91 W/m2
09:39 45.1 °F 37.32 °F 30.02 in Calm   6 mph 74% 0 in WeatherCatV3.04B91 W/m2
09:44 45.1 °F 37.66 °F 30.02 in Calm   6 mph 75% 0 in WeatherCatV3.04B91 W/m2
09:49 45.1 °F 37.66 °F 30.02 in NE 3 mph 5 mph 75% 0 in WeatherCatV3.04B91 W/m2
09:54 45.2 °F 37.75 °F 30.02 in NE 3 mph 7 mph 75% 0 in WeatherCatV3.04B91 W/m2
09:59 45.2 °F 37.75 °F 30.01 in Calm   1 mph 75% 0 in WeatherCatV3.04B91 W/m2
10:04 45.4 °F 37.95 °F 30.01 in Calm   1 mph 75% 0 in WeatherCatV3.04B91 W/m2
10:09 45.7 °F 37.89 °F 30.01 in Calm   5 mph 74% 0 in WeatherCatV3.04B91 W/m2
10:14 45.8 °F 38.33 °F 30.01 in ENE 3 mph 4 mph 75% 0 in WeatherCatV3.04B91 W/m2
10:19 46 °F 38.18 °F 30.01 in ENE 3 mph 7 mph 74% 0 in WeatherCatV3.04B91 W/m2
10:24 46 °F 38.18 °F 30.01 in Calm   4 mph 74% 0 in WeatherCatV3.04B91 W/m2
10:29 46.2 °F 38.03 °F 30.01 in North 2 mph 7 mph 73% 0 in WeatherCatV3.04B91 W/m2
10:34 46.2 °F 38.03 °F 30.01 in Calm   7 mph 73% 0 in WeatherCatV3.04B91 W/m2
10:39 46.5 °F 38.32 °F 30.01 in ENE 3 mph 3 mph 73% 0 in WeatherCatV3.04B91 W/m2
10:44 46.8 °F 38.61 °F 30.01 in Calm   4 mph 73% 0 in WeatherCatV3.04B91 W/m2
10:49 47 °F 38.8 °F 30.01 in NE 1 mph 5 mph 73% 0 in WeatherCatV3.04B91 W/m2
10:54 46.8 °F 38.26 °F 30.01 in Calm   6 mph 72% 0 in WeatherCatV3.04B91 W/m2
10:59 46.8 °F 38.26 °F 30.01 in NE 2 mph 2 mph 72% 0 in WeatherCatV3.04B91 W/m2
11:04 47 °F 38.45 °F 30.01 in Calm   1 mph 72% 0 in WeatherCatV3.04B91 W/m2
11:09 47.3 °F 38.74 °F 30.01 in Calm   6 mph 72% 0 in WeatherCatV3.04B91 W/m2
11:14 47.4 °F 38.83 °F 30.03 in Calm   4 mph 72% 0 in WeatherCatV3.04B91 W/m2
11:19 47.4 °F 38.83 °F 30.03 in NNE 2 mph 9 mph 72% 0 in WeatherCatV3.04B91 W/m2
11:24 47.7 °F 39.12 °F 30.03 in Calm   3 mph 72% 0 in WeatherCatV3.04B91 W/m2
11:29 47.9 °F 38.96 °F 30.02 in Calm   1 mph 71% 0 in WeatherCatV3.04B91 W/m2
11:34 48.2 °F 39.6 °F 30.02 in Calm   2 mph 72% 0 in WeatherCatV3.04B91 W/m2
11:39 48.3 °F 39.34 °F 30.02 in Calm   3 mph 71% 0 in WeatherCatV3.04B91 W/m2
11:44 48.8 °F 40.18 °F 30.01 in Calm     72% 0 in WeatherCatV3.04B91 W/m2
11:49 49.2 °F 39.84 °F 30.01 in Calm     70% 0 in WeatherCatV3.04B91 W/m2
11:54 49.5 °F 39.76 °F 30.01 in Calm   3 mph 69% 0 in WeatherCatV3.04B91 W/m2
11:59 49.9 °F 40.14 °F 30.00 in Calm     69% 0 in WeatherCatV3.04B91 W/m2
12:04 50.4 °F 40.24 °F 30.00 in Calm   5 mph 68% 0 in WeatherCatV3.04B91 W/m2
12:09 50.7 °F 40.15 °F 30.00 in NE 4 mph 6 mph 67% 0 in WeatherCatV3.04B91 W/m2
12:14 50.7 °F 40.15 °F 29.99 in Calm     67% 0 in WeatherCatV3.04B91 W/m2
12:19 50.4 °F 39.86 °F 29.99 in Calm     67% 0 in WeatherCatV3.04B91 W/m2
12:24 50.7 °F 40.15 °F 29.99 in Calm   1 mph 67% 0 in WeatherCatV3.04B91 W/m2
12:29 50.5 °F 39.57 °F 30.00 in Calm     66% 0 in WeatherCatV3.04B91 W/m2
12:34 50.7 °F 40.15 °F 30.00 in Calm     67% 0 in WeatherCatV3.04B91 W/m2
12:39 50.5 °F 39.57 °F 30.00 in Calm   3 mph 66% 0 in WeatherCatV3.04B91 W/m2
12:44 50.7 °F 40.15 °F 30.02 in Calm     67% 0 in WeatherCatV3.04B91 W/m2
12:49 50.7 °F 39.76 °F 30.02 in Calm     66% 0 in WeatherCatV3.04B91 W/m2
12:54 50.7 °F 39.76 °F 30.02 in Calm     66% 0 in WeatherCatV3.04B91 W/m2
12:59 50.7 °F 39.76 °F 30.01 in Calm   1 mph 66% 0 in WeatherCatV3.04B91 W/m2
13:04 50.5 °F 39.57 °F 30.01 in Calm   5 mph 66% 0 in WeatherCatV3.04B91 W/m2
13:09 50.5 °F 39.96 °F 30.01 in Calm     67% 0 in WeatherCatV3.04B91 W/m2
13:14 50.5 °F 39.96 °F 30.00 in NNE 2 mph 2 mph 67% 0 in WeatherCatV3.04B91 W/m2
13:19 50.5 °F 39.96 °F 30.00 in Calm     67% 0 in WeatherCatV3.04B91 W/m2
13:24 51 °F 40.43 °F 30.00 in Calm     67% 0 in WeatherCatV3.04B91 W/m2
13:29 51.1 °F 40.53 °F 29.99 in Calm     67% 0 in WeatherCatV3.04B91 W/m2
13:34 51.3 °F 40.72 °F 29.99 in Calm     67% 0 in WeatherCatV3.04B91 W/m2
13:39 51.3 °F 40.33 °F 29.99 in NE 1 mph 2 mph 66% 0 in WeatherCatV3.04B91 W/m2
13:44 51 °F 40.05 °F 29.98 in Calm     66% 0 in WeatherCatV3.04B91 W/m2
13:49 51 °F 40.05 °F 29.98 in Calm   5 mph 66% 0 in WeatherCatV3.04B91 W/m2
13:54 51.1 °F 40.14 °F 29.98 in Calm   2 mph 66% 0 in WeatherCatV3.04B91 W/m2
13:59 51.4 °F 40.81 °F 29.98 in Calm     67% 0 in WeatherCatV3.04B91 W/m2
14:04 51.7 °F 40.71 °F 29.98 in NE 3 mph 5 mph 66% 0 in WeatherCatV3.04B91 W/m2
14:09 51.9 °F 40.9 °F 29.98 in Calm   6 mph 66% 0 in WeatherCatV3.04B91 W/m2
14:13 51.9 °F 40.9 °F 29.98 in Calm     66% 0 in WeatherCatV3.04B91 W/m2
14:19 52 °F 41 °F 29.98 in Calm     66% 0 in WeatherCatV3.04B91 W/m2
14:24 52 °F 41 °F 29.98 in Calm   1 mph 66% 0 in WeatherCatV3.04B91 W/m2
14:29 51.9 °F 40.51 °F 29.96 in Calm   7 mph 65% 0 in WeatherCatV3.04B91 W/m2
14:34 51.7 °F 40.71 °F 29.96 in Calm   3 mph 66% 0 in WeatherCatV3.04B91 W/m2
14:39 51.9 °F 40.9 °F 29.96 in Calm   5 mph 66% 0 in WeatherCatV3.04B91 W/m2
14:44 51.9 °F 40.9 °F 29.95 in Calm   4 mph 66% 0 in WeatherCatV3.04B91 W/m2
14:49 51.9 °F 40.9 °F 29.95 in Calm   3 mph 66% 0 in WeatherCatV3.04B91 W/m2
14:54 52 °F 41 °F 29.95 in Calm   4 mph 66% 0 in WeatherCatV3.04B91 W/m2
14:59 52 °F 40.6 °F 29.96 in Calm   9 mph 65% 0 in WeatherCatV3.04B91 W/m2
15:04 52 °F 40.6 °F 29.96 in Calm   1 mph 65% 0 in WeatherCatV3.04B91 W/m2
15:09 52 °F 41 °F 29.96 in Calm   4 mph 66% 0 in WeatherCatV3.04B91 W/m2
15:14 52.2 °F 41.19 °F 29.96 in ENE 6 mph 9 mph 66% 0 in WeatherCatV3.04B91 W/m2
15:19 52 °F 40.6 °F 29.96 in NE 4 mph 6 mph 65% 0 in WeatherCatV3.04B91 W/m2
15:24 52 °F 41 °F 29.96 in Calm     66% 0 in WeatherCatV3.04B91 W/m2
15:29 52 °F 41 °F 29.96 in Calm     66% 0 in WeatherCatV3.04B91 W/m2
15:34 52.2 °F 41.58 °F 29.96 in Calm   1 mph 67% 0 in WeatherCatV3.04B91 W/m2
15:39 52.2 °F 41.19 °F 29.96 in Calm     66% 0 in WeatherCatV3.04B91 W/m2
15:44 52.2 °F 41.19 °F 29.97 in Calm     66% 0 in WeatherCatV3.04B91 W/m2
15:49 52.2 °F 41.19 °F 29.97 in Calm     66% 0 in WeatherCatV3.04B91 W/m2
15:54 52.2 °F 41.58 °F 29.97 in Calm     67% 0 in WeatherCatV3.04B91 W/m2
15:59 52.2 °F 41.58 °F 29.97 in Calm     67% 0 in WeatherCatV3.04B91 W/m2
16:04 52.3 °F 41.67 °F 29.97 in Calm     67% 0 in WeatherCatV3.04B91 W/m2
16:09 52.3 °F 42.06 °F 29.97 in Calm     68% 0 in WeatherCatV3.04B91 W/m2
16:14 52.3 °F 42.06 °F 29.96 in Calm     68% 0 in WeatherCatV3.04B91 W/m2
16:19 52.3 °F 42.44 °F 29.96 in Calm     69% 0 in WeatherCatV3.04B91 W/m2
16:24 52.3 °F 42.81 °F 29.96 in Calm     70% 0 in WeatherCatV3.04B91 W/m2
16:29 52.2 °F 42.71 °F 29.96 in Calm     70% 0 in WeatherCatV3.04B91 W/m2
16:34 52 °F 42.89 °F 29.96 in Calm     71% 0 in WeatherCatV3.04B91 W/m2
16:39 52 °F 43.26 °F 29.96 in Calm     72% 0 in WeatherCatV3.04B91 W/m2
16:44 51.9 °F 43.52 °F 29.95 in Calm     73% 0 in WeatherCatV3.04B91 W/m2
16:49 51.7 °F 43.33 °F 29.95 in Calm     73% 0 in WeatherCatV3.04B91 W/m2
16:54 51.6 °F 43.59 °F 29.95 in Calm     74% 0 in WeatherCatV3.04B91 W/m2
16:59 51.3 °F 43.3 °F 29.93 in Calm     74% 0 in WeatherCatV3.04B91 W/m2
17:04 51.1 °F 43.45 °F 29.93 in Calm   2 mph 75% 0 in WeatherCatV3.04B91 W/m2
17:09 51.1 °F 43.8 °F 29.93 in Calm     76% 0 in WeatherCatV3.04B91 W/m2
17:14 51 °F 43.7 °F 29.93 in Calm   2 mph 76% 0 in WeatherCatV3.04B91 W/m2
17:19 51 °F 43.7 °F 29.93 in Calm   3 mph 76% 0 in WeatherCatV3.04B91 W/m2
17:24 50.8 °F 43.85 °F 29.93 in Calm   3 mph 77% 0 in WeatherCatV3.04B91 W/m2
17:29 50.7 °F 43.76 °F 29.92 in Calm     77% 0 in WeatherCatV3.04B91 W/m2
17:34 50.5 °F 43.56 °F 29.92 in Calm     77% 0 in WeatherCatV3.04B91 W/m2
17:39 50.7 °F 44.09 °F 29.92 in Calm   1 mph 78% 0 in WeatherCatV3.04B91 W/m2
17:44 50.7 °F 44.09 °F 29.90 in Calm     78% 0 in WeatherCatV3.04B91 W/m2
17:49 50.7 °F 44.43 °F 29.90 in Calm   1 mph 79% 0 in WeatherCatV3.04B91 W/m2
17:54 50.8 °F 44.52 °F 29.90 in NE 4 mph 4 mph 79% 0 in WeatherCatV3.04B91 W/m2
17:59 50.7 °F 44.43 °F 29.89 in NE 2 mph 2 mph 79% 0 in WeatherCatV3.04B91 W/m2
18:04 50.8 °F 44.19 °F 29.89 in Calm   2 mph 78% 0 in WeatherCatV3.04B91 W/m2
18:09 50.7 °F 44.09 °F 29.89 in Calm   4 mph 78% 0 in WeatherCatV3.04B91 W/m2
18:14 50.7 °F 43.76 °F 29.87 in Calm   6 mph 77% 0 in WeatherCatV3.04B91 W/m2
18:19 50.7 °F 43.76 °F 29.87 in Calm   3 mph 77% 0 in WeatherCatV3.04B91 W/m2
18:24 50.5 °F 43.56 °F 29.87 in Calm     77% 0 in WeatherCatV3.04B91 W/m2
18:29 50.5 °F 43.56 °F 29.85 in Calm   6 mph 77% 0 in WeatherCatV3.04B91 W/m2
18:34 50.5 °F 43.56 °F 29.85 in Calm   5 mph 77% 0 in WeatherCatV3.04B91 W/m2
18:39 50.4 °F 43.46 °F 29.85 in NNE 1 mph 4 mph 77% 0 in WeatherCatV3.04B91 W/m2
18:44 50.4 °F 43.46 °F 29.86 in Calm   6 mph 77% 0 in WeatherCatV3.04B91 W/m2
18:49 50.4 °F 43.46 °F 29.86 in Calm     77% 0 in WeatherCatV3.04B91 W/m2
18:54 50.5 °F 43.56 °F 29.86 in NE 3 mph 6 mph 77% 0 in WeatherCatV3.04B91 W/m2
18:59 50.5 °F 43.56 °F 29.87 in Calm   7 mph 77% 0 in WeatherCatV3.04B91 W/m2
19:04 50.5 °F 43.56 °F 29.87 in Calm     77% 0 in WeatherCatV3.04B91 W/m2
19:09 50.5 °F 43.56 °F 29.87 in Calm     77% 0 in WeatherCatV3.04B91 W/m2
19:14 50.5 °F 43.56 °F 29.87 in Calm     77% 0 in WeatherCatV3.04B91 W/m2
19:19 50.5 °F 43.56 °F 29.87 in Calm   1 mph 77% 0 in WeatherCatV3.04B91 W/m2
19:24 50.5 °F 43.56 °F 29.87 in Calm     77% 0 in WeatherCatV3.04B91 W/m2
19:29 50.5 °F 43.56 °F 29.85 in NNW 3 mph 3 mph 77% 0 in WeatherCatV3.04B91 W/m2
19:34 50.5 °F 43.9 °F 29.85 in Calm   6 mph 78% 0 in WeatherCatV3.04B91 W/m2
19:39 50.4 °F 43.46 °F 29.85 in Calm     77% 0 in WeatherCatV3.04B91 W/m2
19:44 50.4 °F 43.46 °F 29.85 in Calm     77% 0 in WeatherCatV3.04B91 W/m2
19:49 50.4 °F 43.8 °F 29.85 in Calm   1 mph 78% 0 in WeatherCatV3.04B91 W/m2
19:54 50.4 °F 43.8 °F 29.85 in Calm   12 mph 78% 0 in WeatherCatV3.04B91 W/m2
19:59 50.2 °F 43.61 °F 29.83 in Calm     78% 0 in WeatherCatV3.04B91 W/m2
20:04 50.1 °F 43.51 °F 29.83 in Calm   5 mph 78% 0 in WeatherCatV3.04B91 W/m2
20:09 50.1 °F 43.51 °F 29.83 in Calm   1 mph 78% 0 in WeatherCatV3.04B91 W/m2
20:14 49.9 °F 43.32 °F 29.82 in Calm   5 mph 78% 0 in WeatherCatV3.04B91 W/m2
20:19 49.9 °F 43.32 °F 29.82 in NNE 5 mph 5 mph 78% 0 in WeatherCatV3.04B91 W/m2
20:24 49.8 °F 43.22 °F 29.82 in Calm     78% 0 in WeatherCatV3.04B91 W/m2
20:29 49.6 °F 43.03 °F 29.82 in Calm   7 mph 78% 0 in WeatherCatV3.04B91 W/m2
20:34 49.6 °F 43.36 °F 29.82 in Calm   7 mph 79% 0 in WeatherCatV3.04B91 W/m2
20:39 49.6 °F 43.36 °F 29.82 in Calm   4 mph 79% 0 in WeatherCatV3.04B91 W/m2
20:44 49.6 °F 43.36 °F 29.83 in ENE 2 mph 2 mph 79% 0 in WeatherCatV3.04B91 W/m2
20:49 49.5 °F 43.26 °F 29.83 in Calm     79% 0 in WeatherCatV3.04B91 W/m2
20:54 49.5 °F 43.26 °F 29.83 in Calm   4 mph 79% 0 in WeatherCatV3.04B91 W/m2
20:59 49.4 °F 43.49 °F 29.82 in Calm   5 mph 80% 0 in WeatherCatV3.04B91 W/m2
21:04 49.4 °F 43.49 °F 29.82 in Calm   1 mph 80% 0 in WeatherCatV3.04B91 W/m2
21:09 49.2 °F 43.3 °F 29.82 in NNE 5 mph 6 mph 80% 0 in WeatherCatV3.04B91 W/m2
21:14 49.2 °F 43.3 °F 29.81 in Calm   11 mph 80% 0 in WeatherCatV3.04B91 W/m2
21:19 49.1 °F 43.2 °F 29.81 in Calm   3 mph 80% 0 in WeatherCatV3.04B91 W/m2
21:24 49.1 °F 43.2 °F 29.81 in NE 2 mph 4 mph 80% 0 in WeatherCatV3.04B91 W/m2
21:29 49.1 °F 43.2 °F 29.81 in Calm   8 mph 80% 0 in WeatherCatV3.04B91 W/m2
21:34 49.1 °F 43.52 °F 29.81 in NE 2 mph 6 mph 81% 0 in WeatherCatV3.04B91 W/m2
21:39 48.9 °F 43.33 °F 29.81 in Calm   5 mph 81% 0 in WeatherCatV3.04B91 W/m2
21:44 48.9 °F 43.33 °F 29.80 in Calm     81% 0 in WeatherCatV3.04B91 W/m2
21:49 48.9 °F 43.33 °F 29.80 in NE 2 mph 6 mph 81% 0 in WeatherCatV3.04B91 W/m2
21:54 48.9 °F 43.33 °F 29.80 in ENE 2 mph 2 mph 81% 0 in WeatherCatV3.04B91 W/m2
21:59 48.9 °F 43.33 °F 29.79 in East 6 mph 6 mph 81% 0 in WeatherCatV3.04B91 W/m2
22:04 48.9 °F 43.33 °F 29.79 in Calm   9 mph 81% 0 in WeatherCatV3.04B91 W/m2
22:09 48.9 °F 43.33 °F 29.79 in Calm   2 mph 81% 0 in WeatherCatV3.04B91 W/m2
22:14 48.9 °F 43.33 °F 29.80 in Calm   5 mph 81% 0 in WeatherCatV3.04B91 W/m2
22:19 49.1 °F 43.52 °F 29.80 in ENE 4 mph 5 mph 81% 0 in WeatherCatV3.04B91 W/m2
22:24 49.1 °F 43.52 °F 29.80 in Calm   6 mph 81% 0 in WeatherCatV3.04B91 W/m2
22:29 49.1 °F 43.2 °F 29.80 in Calm   3 mph 80% 0 in WeatherCatV3.04B91 W/m2
22:34 49.1 °F 43.2 °F 29.80 in East 2 mph 3 mph 80% 0 in WeatherCatV3.04B91 W/m2
22:39 49.1 °F 43.2 °F 29.80 in NE 6 mph 6 mph 80% 0 in WeatherCatV3.04B91 W/m2
22:44 49.1 °F 43.2 °F 29.79 in Calm   6 mph 80% 0 in WeatherCatV3.04B91 W/m2
22:49 49.2 °F 43.3 °F 29.79 in Calm   6 mph 80% 0 in WeatherCatV3.04B91 W/m2
22:54 49.2 °F 43.3 °F 29.79 in Calm   4 mph 80% 0 in WeatherCatV3.04B91 W/m2
22:59 49.2 °F 43.3 °F 29.78 in NNE 2 mph 10 mph 80% 0 in WeatherCatV3.04B91 W/m2
23:04 49.2 °F 42.97 °F 29.78 in NE 3 mph 10 mph 79% 0 in WeatherCatV3.04B91 W/m2
23:09 49.4 °F 43.16 °F 29.78 in Calm   3 mph 79% 0 in WeatherCatV3.04B91 W/m2
23:14 49.4 °F 43.16 °F 29.79 in Calm     79% 0 in WeatherCatV3.04B91 W/m2
23:19 49.4 °F 43.16 °F 29.79 in Calm     79% 0 in WeatherCatV3.04B91 W/m2
23:24 49.4 °F 43.16 °F 29.79 in Calm     79% 0 in WeatherCatV3.04B91 W/m2
23:29 49.4 °F 43.16 °F 29.79 in Calm   4 mph 79% 0 in WeatherCatV3.04B91 W/m2
23:34 49.4 °F 43.16 °F 29.79 in East 4 mph 5 mph 79% 0 in WeatherCatV3.04B91 W/m2
23:39 49.4 °F 43.16 °F 29.79 in Calm     79% 0 in WeatherCatV3.04B91 W/m2
23:44 49.2 °F 42.97 °F 29.78 in Calm   3 mph 79% 0 in WeatherCatV3.04B91 W/m2
23:49 49.1 °F 43.2 °F 29.78 in Calm   3 mph 80% 0 in WeatherCatV3.04B91 W/m2
23:54 48.9 °F 43.33 °F 29.78 in Calm   10 mph 81% 0 in WeatherCatV3.04B91 W/m2
23:59 48.9 °F 43.33 °F 29.79 in Calm     81% 0 in WeatherCatV3.04B91 W/m2
Bellevue, Nebraska, USA
Compliments of Weather Underground - 3.25 mb